sensor_id;sensor_type;location;lat;lon;timestamp;P1;durP1;ratioP1;P2;durP2;ratioP2
5742;SDS011;2896;53.500;10.020;2023-05-25T00:00:34;13.57;;;6.70;;
5742;SDS011;2896;53.500;10.020;2023-05-25T00:03:00;21.00;;;7.10;;
5742;SDS011;2896;53.500;10.020;2023-05-25T00:05:27;11.27;;;7.83;;
5742;SDS011;2896;53.500;10.020;2023-05-25T00:07:55;15.93;;;7.50;;
5742;SDS011;2896;53.500;10.020;2023-05-25T00:10:21;18.33;;;8.20;;
5742;SDS011;2896;53.500;10.020;2023-05-25T00:12:48;9.63;;;6.63;;
5742;SDS011;2896;53.500;10.020;2023-05-25T00:15:15;21.73;;;8.17;;
5742;SDS011;2896;53.500;10.020;2023-05-25T00:17:43;15.97;;;7.63;;
5742;SDS011;2896;53.500;10.020;2023-05-25T00:20:12;9.27;;;6.50;;
5742;SDS011;2896;53.500;10.020;2023-05-25T00:22:41;15.00;;;8.43;;
5742;SDS011;2896;53.500;10.020;2023-05-25T00:25:10;17.83;;;9.33;;
5742;SDS011;2896;53.500;10.020;2023-05-25T00:27:36;18.57;;;9.53;;
5742;SDS011;2896;53.500;10.020;2023-05-25T00:30:03;14.13;;;10.20;;
5742;SDS011;2896;53.500;10.020;2023-05-25T00:32:31;34.87;;;11.20;;
5742;SDS011;2896;53.500;10.020;2023-05-25T00:34:59;13.73;;;10.10;;
5742;SDS011;2896;53.500;10.020;2023-05-25T00:37:26;23.17;;;9.60;;
5742;SDS011;2896;53.500;10.020;2023-05-25T00:39:53;15.03;;;9.63;;
5742;SDS011;2896;53.500;10.020;2023-05-25T00:42:19;20.80;;;10.93;;
5742;SDS011;2896;53.500;10.020;2023-05-25T00:44:46;29.47;;;11.27;;
5742;SDS011;2896;53.500;10.020;2023-05-25T00:47:13;23.67;;;13.70;;
5742;SDS011;2896;53.500;10.020;2023-05-25T00:49:41;17.57;;;10.20;;
5742;SDS011;2896;53.500;10.020;2023-05-25T00:52:09;19.97;;;11.90;;
5742;SDS011;2896;53.500;10.020;2023-05-25T00:54:37;17.03;;;11.57;;
5742;SDS011;2896;53.500;10.020;2023-05-25T00:57:05;22.57;;;11.00;;
5742;SDS011;2896;53.500;10.020;2023-05-25T00:59:34;27.37;;;12.87;;
5742;SDS011;2896;53.500;10.020;2023-05-25T01:02:06;21.10;;;11.70;;
5742;SDS011;2896;53.500;10.020;2023-05-25T01:04:35;21.87;;;11.50;;
5742;SDS011;2896;53.500;10.020;2023-05-25T01:07:03;20.80;;;10.93;;
5742;SDS011;2896;53.500;10.020;2023-05-25T01:09:32;22.53;;;9.90;;
5742;SDS011;2896;53.500;10.020;2023-05-25T01:12:02;19.17;;;10.70;;
5742;SDS011;2896;53.500;10.020;2023-05-25T01:14:29;14.40;;;9.80;;
5742;SDS011;2896;53.500;10.020;2023-05-25T01:16:57;21.53;;;11.03;;
5742;SDS011;2896;53.500;10.020;2023-05-25T01:19:25;19.47;;;10.73;;
5742;SDS011;2896;53.500;10.020;2023-05-25T01:21:55;17.23;;;9.60;;
5742;SDS011;2896;53.500;10.020;2023-05-25T01:24:27;22.17;;;9.13;;
5742;SDS011;2896;53.500;10.020;2023-05-25T01:26:59;16.80;;;10.40;;
5742;SDS011;2896;53.500;10.020;2023-05-25T01:29:30;28.37;;;14.03;;
5742;SDS011;2896;53.500;10.020;2023-05-25T01:31:59;21.30;;;11.40;;
5742;SDS011;2896;53.500;10.020;2023-05-25T01:34:29;21.80;;;10.73;;
5742;SDS011;2896;53.500;10.020;2023-05-25T01:36:57;19.27;;;10.83;;
5742;SDS011;2896;53.500;10.020;2023-05-25T01:39:24;15.10;;;9.03;;
5742;SDS011;2896;53.500;10.020;2023-05-25T01:41:51;20.93;;;10.67;;
5742;SDS011;2896;53.500;10.020;2023-05-25T01:44:17;20.57;;;10.50;;
5742;SDS011;2896;53.500;10.020;2023-05-25T01:46:44;41.97;;;14.07;;
5742;SDS011;2896;53.500;10.020;2023-05-25T01:49:15;20.67;;;11.10;;
5742;SDS011;2896;53.500;10.020;2023-05-25T01:51:52;22.43;;;10.67;;
5742;SDS011;2896;53.500;10.020;2023-05-25T01:54:27;31.83;;;13.40;;
5742;SDS011;2896;53.500;10.020;2023-05-25T01:56:59;19.70;;;11.27;;
5742;SDS011;2896;53.500;10.020;2023-05-25T01:59:28;28.83;;;13.10;;
5742;SDS011;2896;53.500;10.020;2023-05-25T02:01:57;28.30;;;12.50;;
5742;SDS011;2896;53.500;10.020;2023-05-25T02:04:24;32.47;;;12.80;;
5742;SDS011;2896;53.500;10.020;2023-05-25T02:06:51;22.27;;;12.10;;
5742;SDS011;2896;53.500;10.020;2023-05-25T02:09:18;20.47;;;11.83;;
5742;SDS011;2896;53.500;10.020;2023-05-25T02:11:46;28.93;;;12.90;;
5742;SDS011;2896;53.500;10.020;2023-05-25T02:14:14;19.77;;;11.57;;
5742;SDS011;2896;53.500;10.020;2023-05-25T02:16:41;28.83;;;13.20;;
5742;SDS011;2896;53.500;10.020;2023-05-25T02:19:10;27.07;;;11.90;;
5742;SDS011;2896;53.500;10.020;2023-05-25T02:21:38;34.37;;;14.83;;
5742;SDS011;2896;53.500;10.020;2023-05-25T02:24:05;31.17;;;13.37;;
5742;SDS011;2896;53.500;10.020;2023-05-25T02:26:33;26.27;;;12.83;;
5742;SDS011;2896;53.500;10.020;2023-05-25T02:29:01;26.87;;;13.47;;
5742;SDS011;2896;53.500;10.020;2023-05-25T02:31:28;32.67;;;14.67;;
5742;SDS011;2896;53.500;10.020;2023-05-25T02:33:54;21.93;;;12.83;;
5742;SDS011;2896;53.500;10.020;2023-05-25T02:36:21;24.70;;;13.13;;
5742;SDS011;2896;53.500;10.020;2023-05-25T02:38:48;28.27;;;14.97;;
5742;SDS011;2896;53.500;10.020;2023-05-25T02:41:17;27.43;;;13.97;;
5742;SDS011;2896;53.500;10.020;2023-05-25T02:43:44;24.00;;;13.00;;
5742;SDS011;2896;53.500;10.020;2023-05-25T02:46:12;32.43;;;14.73;;
5742;SDS011;2896;53.500;10.020;2023-05-25T02:48:40;32.73;;;14.37;;
5742;SDS011;2896;53.500;10.020;2023-05-25T02:51:07;24.40;;;11.77;;
5742;SDS011;2896;53.500;10.020;2023-05-25T02:53:34;31.80;;;14.00;;
5742;SDS011;2896;53.500;10.020;2023-05-25T02:56:01;23.70;;;13.53;;
5742;SDS011;2896;53.500;10.020;2023-05-25T02:58:28;20.83;;;11.93;;
5742;SDS011;2896;53.500;10.020;2023-05-25T03:00:55;28.73;;;14.20;;
5742;SDS011;2896;53.500;10.020;2023-05-25T03:03:25;29.40;;;13.17;;
5742;SDS011;2896;53.500;10.020;2023-05-25T03:05:52;27.13;;;12.70;;
5742;SDS011;2896;53.500;10.020;2023-05-25T03:08:18;40.53;;;15.50;;
5742;SDS011;2896;53.500;10.020;2023-05-25T03:10:45;28.03;;;16.53;;
5742;SDS011;2896;53.500;10.020;2023-05-25T03:13:12;26.13;;;13.60;;
5742;SDS011;2896;53.500;10.020;2023-05-25T03:15:38;21.80;;;12.47;;
5742;SDS011;2896;53.500;10.020;2023-05-25T03:18:05;19.43;;;11.40;;
5742;SDS011;2896;53.500;10.020;2023-05-25T03:20:33;23.27;;;13.20;;
5742;SDS011;2896;53.500;10.020;2023-05-25T03:22:59;25.90;;;13.90;;
5742;SDS011;2896;53.500;10.020;2023-05-25T03:25:26;25.50;;;14.00;;
5742;SDS011;2896;53.500;10.020;2023-05-25T03:27:53;28.13;;;14.23;;
5742;SDS011;2896;53.500;10.020;2023-05-25T03:30:20;40.80;;;15.03;;
5742;SDS011;2896;53.500;10.020;2023-05-25T03:32:47;26.27;;;13.50;;
5742;SDS011;2896;53.500;10.020;2023-05-25T03:35:14;24.53;;;14.43;;
5742;SDS011;2896;53.500;10.020;2023-05-25T03:37:42;35.20;;;17.13;;
5742;SDS011;2896;53.500;10.020;2023-05-25T03:40:09;36.63;;;16.40;;
5742;SDS011;2896;53.500;10.020;2023-05-25T03:42:36;41.77;;;15.90;;
5742;SDS011;2896;53.500;10.020;2023-05-25T03:45:03;40.13;;;16.00;;
5742;SDS011;2896;53.500;10.020;2023-05-25T03:47:32;40.43;;;15.67;;
5742;SDS011;2896;53.500;10.020;2023-05-25T03:49:59;34.00;;;15.60;;
5742;SDS011;2896;53.500;10.020;2023-05-25T03:52:26;29.83;;;14.60;;
5742;SDS011;2896;53.500;10.020;2023-05-25T03:54:54;30.33;;;14.30;;
5742;SDS011;2896;53.500;10.020;2023-05-25T03:57:21;26.00;;;14.53;;
5742;SDS011;2896;53.500;10.020;2023-05-25T03:59:47;45.23;;;15.40;;
5742;SDS011;2896;53.500;10.020;2023-05-25T04:02:14;33.50;;;15.70;;
5742;SDS011;2896;53.500;10.020;2023-05-25T04:04:40;45.63;;;14.90;;
5742;SDS011;2896;53.500;10.020;2023-05-25T04:07:07;31.83;;;12.53;;
5742;SDS011;2896;53.500;10.020;2023-05-25T04:09:34;31.80;;;13.63;;
5742;SDS011;2896;53.500;10.020;2023-05-25T04:12:03;30.93;;;14.60;;
5742;SDS011;2896;53.500;10.020;2023-05-25T04:14:30;31.47;;;13.47;;
5742;SDS011;2896;53.500;10.020;2023-05-25T04:16:56;34.70;;;13.57;;
5742;SDS011;2896;53.500;10.020;2023-05-25T04:19:23;36.67;;;13.40;;
5742;SDS011;2896;53.500;10.020;2023-05-25T04:21:50;28.53;;;12.30;;
5742;SDS011;2896;53.500;10.020;2023-05-25T04:24:16;22.63;;;11.60;;
5742;SDS011;2896;53.500;10.020;2023-05-25T04:26:43;35.00;;;12.40;;
5742;SDS011;2896;53.500;10.020;2023-05-25T04:29:12;22.80;;;11.67;;
5742;SDS011;2896;53.500;10.020;2023-05-25T04:31:38;23.13;;;11.80;;
5742;SDS011;2896;53.500;10.020;2023-05-25T04:34:05;20.20;;;9.77;;
5742;SDS011;2896;53.500;10.020;2023-05-25T04:36:33;17.20;;;9.73;;
5742;SDS011;2896;53.500;10.020;2023-05-25T04:39:02;22.33;;;11.37;;
5742;SDS011;2896;53.500;10.020;2023-05-25T04:41:29;29.03;;;11.70;;
5742;SDS011;2896;53.500;10.020;2023-05-25T04:43:57;26.23;;;10.30;;
5742;SDS011;2896;53.500;10.020;2023-05-25T04:46:26;36.83;;;10.60;;
5742;SDS011;2896;53.500;10.020;2023-05-25T04:48:53;17.57;;;9.70;;
5742;SDS011;2896;53.500;10.020;2023-05-25T04:51:20;25.80;;;10.47;;
5742;SDS011;2896;53.500;10.020;2023-05-25T04:53:46;20.73;;;10.07;;
5742;SDS011;2896;53.500;10.020;2023-05-25T04:56:13;19.80;;;10.67;;
5742;SDS011;2896;53.500;10.020;2023-05-25T04:58:40;21.83;;;10.43;;
5742;SDS011;2896;53.500;10.020;2023-05-25T05:01:08;17.83;;;10.20;;
5742;SDS011;2896;53.500;10.020;2023-05-25T05:03:36;18.30;;;9.03;;
5742;SDS011;2896;53.500;10.020;2023-05-25T05:06:03;19.17;;;9.10;;
5742;SDS011;2896;53.500;10.020;2023-05-25T05:08:30;24.50;;;10.43;;
5742;SDS011;2896;53.500;10.020;2023-05-25T05:10:56;19.60;;;9.20;;
5742;SDS011;2896;53.500;10.020;2023-05-25T05:13:23;19.93;;;8.10;;
5742;SDS011;2896;53.500;10.020;2023-05-25T05:15:50;16.60;;;8.27;;
5742;SDS011;2896;53.500;10.020;2023-05-25T05:18:18;25.47;;;8.50;;
5742;SDS011;2896;53.500;10.020;2023-05-25T05:20:46;16.60;;;7.13;;
5742;SDS011;2896;53.500;10.020;2023-05-25T05:23:12;20.03;;;8.57;;
5742;SDS011;2896;53.500;10.020;2023-05-25T05:25:39;15.37;;;6.60;;
5742;SDS011;2896;53.500;10.020;2023-05-25T05:28:06;19.47;;;8.30;;
5742;SDS011;2896;53.500;10.020;2023-05-25T05:30:33;18.37;;;8.00;;
5742;SDS011;2896;53.500;10.020;2023-05-25T05:33:00;28.23;;;8.60;;
5742;SDS011;2896;53.500;10.020;2023-05-25T05:35:27;25.63;;;6.70;;
5742;SDS011;2896;53.500;10.020;2023-05-25T05:37:55;21.60;;;7.50;;
5742;SDS011;2896;53.500;10.020;2023-05-25T05:40:21;11.30;;;6.40;;
5742;SDS011;2896;53.500;10.020;2023-05-25T05:42:50;18.23;;;6.90;;
5742;SDS011;2896;53.500;10.020;2023-05-25T05:45:16;30.23;;;8.30;;
5742;SDS011;2896;53.500;10.020;2023-05-25T05:47:43;21.43;;;7.57;;
5742;SDS011;2896;53.500;10.020;2023-05-25T05:50:10;23.67;;;7.93;;
5742;SDS011;2896;53.500;10.020;2023-05-25T05:52:37;27.27;;;8.00;;
5742;SDS011;2896;53.500;10.020;2023-05-25T05:55:05;26.50;;;6.63;;
5742;SDS011;2896;53.500;10.020;2023-05-25T05:57:32;18.07;;;6.53;;
5742;SDS011;2896;53.500;10.020;2023-05-25T05:59:59;19.13;;;6.40;;
5742;SDS011;2896;53.500;10.020;2023-05-25T06:02:25;25.47;;;7.67;;
5742;SDS011;2896;53.500;10.020;2023-05-25T06:04:52;12.17;;;6.07;;
5742;SDS011;2896;53.500;10.020;2023-05-25T06:07:19;26.60;;;6.10;;
5742;SDS011;2896;53.500;10.020;2023-05-25T06:09:46;21.33;;;6.40;;
5742;SDS011;2896;53.500;10.020;2023-05-25T06:12:14;13.83;;;6.10;;
5742;SDS011;2896;53.500;10.020;2023-05-25T06:14:40;28.20;;;6.80;;
5742;SDS011;2896;53.500;10.020;2023-05-25T06:17:07;17.20;;;6.10;;
5742;SDS011;2896;53.500;10.020;2023-05-25T06:19:34;19.90;;;5.90;;
5742;SDS011;2896;53.500;10.020;2023-05-25T06:22:00;27.67;;;6.17;;
5742;SDS011;2896;53.500;10.020;2023-05-25T06:24:27;19.43;;;6.60;;
5742;SDS011;2896;53.500;10.020;2023-05-25T06:26:55;19.40;;;5.23;;
5742;SDS011;2896;53.500;10.020;2023-05-25T06:29:23;29.50;;;6.20;;
5742;SDS011;2896;53.500;10.020;2023-05-25T06:31:49;29.83;;;6.10;;
5742;SDS011;2896;53.500;10.020;2023-05-25T06:34:16;25.57;;;6.77;;
5742;SDS011;2896;53.500;10.020;2023-05-25T06:36:43;19.87;;;7.10;;
5742;SDS011;2896;53.500;10.020;2023-05-25T06:39:11;22.43;;;6.07;;
5742;SDS011;2896;53.500;10.020;2023-05-25T06:41:40;16.10;;;5.00;;
5742;SDS011;2896;53.500;10.020;2023-05-25T06:44:07;11.50;;;4.20;;
5742;SDS011;2896;53.500;10.020;2023-05-25T06:46:35;21.60;;;5.93;;
5742;SDS011;2896;53.500;10.020;2023-05-25T06:49:03;21.37;;;6.40;;
5742;SDS011;2896;53.500;10.020;2023-05-25T06:51:29;20.80;;;5.70;;
5742;SDS011;2896;53.500;10.020;2023-05-25T06:53:57;27.07;;;6.40;;
5742;SDS011;2896;53.500;10.020;2023-05-25T06:56:23;22.47;;;5.87;;
5742;SDS011;2896;53.500;10.020;2023-05-25T06:58:50;30.50;;;7.03;;
5742;SDS011;2896;53.500;10.020;2023-05-25T07:01:17;19.00;;;5.17;;
5742;SDS011;2896;53.500;10.020;2023-05-25T07:03:45;21.50;;;5.43;;
5742;SDS011;2896;53.500;10.020;2023-05-25T07:06:11;25.43;;;6.00;;
5742;SDS011;2896;53.500;10.020;2023-05-25T07:08:39;27.67;;;5.97;;
5742;SDS011;2896;53.500;10.020;2023-05-25T07:11:05;17.30;;;5.43;;
5742;SDS011;2896;53.500;10.020;2023-05-25T07:13:34;26.07;;;5.60;;
5742;SDS011;2896;53.500;10.020;2023-05-25T07:16:01;21.47;;;5.00;;
5742;SDS011;2896;53.500;10.020;2023-05-25T07:18:27;20.03;;;5.83;;
5742;SDS011;2896;53.500;10.020;2023-05-25T07:20:55;19.50;;;5.10;;
5742;SDS011;2896;53.500;10.020;2023-05-25T07:23:22;19.13;;;5.47;;
5742;SDS011;2896;53.500;10.020;2023-05-25T07:25:48;16.00;;;6.10;;
5742;SDS011;2896;53.500;10.020;2023-05-25T07:28:15;23.87;;;6.43;;
5742;SDS011;2896;53.500;10.020;2023-05-25T07:30:42;24.87;;;5.20;;
5742;SDS011;2896;53.500;10.020;2023-05-25T07:33:08;29.40;;;7.17;;
5742;SDS011;2896;53.500;10.020;2023-05-25T07:35:35;20.37;;;7.20;;
5742;SDS011;2896;53.500;10.020;2023-05-25T07:38:03;24.80;;;6.30;;
5742;SDS011;2896;53.500;10.020;2023-05-25T07:40:30;23.43;;;5.50;;
5742;SDS011;2896;53.500;10.020;2023-05-25T07:42:57;24.37;;;6.47;;
5742;SDS011;2896;53.500;10.020;2023-05-25T07:45:23;22.03;;;5.80;;
5742;SDS011;2896;53.500;10.020;2023-05-25T07:47:50;26.47;;;5.90;;
5742;SDS011;2896;53.500;10.020;2023-05-25T07:50:17;15.60;;;4.80;;
5742;SDS011;2896;53.500;10.020;2023-05-25T07:52:43;24.63;;;6.17;;
5742;SDS011;2896;53.500;10.020;2023-05-25T07:55:12;27.07;;;5.87;;
5742;SDS011;2896;53.500;10.020;2023-05-25T07:57:39;33.40;;;6.10;;
5742;SDS011;2896;53.500;10.020;2023-05-25T08:00:06;26.03;;;6.17;;
5742;SDS011;2896;53.500;10.020;2023-05-25T08:02:34;21.80;;;4.80;;
5742;SDS011;2896;53.500;10.020;2023-05-25T08:05:01;33.93;;;6.90;;
5742;SDS011;2896;53.500;10.020;2023-05-25T08:07:29;24.73;;;6.37;;
5742;SDS011;2896;53.500;10.020;2023-05-25T08:09:56;26.10;;;5.37;;
5742;SDS011;2896;53.500;10.020;2023-05-25T08:12:24;25.03;;;7.07;;
5742;SDS011;2896;53.500;10.020;2023-05-25T08:14:50;11.67;;;5.00;;
5742;SDS011;2896;53.500;10.020;2023-05-25T08:17:18;20.47;;;5.80;;
5742;SDS011;2896;53.500;10.020;2023-05-25T08:19:44;20.40;;;5.57;;
5742;SDS011;2896;53.500;10.020;2023-05-25T08:22:11;19.60;;;5.70;;
5742;SDS011;2896;53.500;10.020;2023-05-25T08:24:38;26.27;;;5.77;;
5742;SDS011;2896;53.500;10.020;2023-05-25T08:27:05;21.10;;;5.77;;
5742;SDS011;2896;53.500;10.020;2023-05-25T08:29:33;18.40;;;5.40;;
5742;SDS011;2896;53.500;10.020;2023-05-25T08:31:59;20.07;;;5.07;;
5742;SDS011;2896;53.500;10.020;2023-05-25T08:34:26;23.33;;;6.93;;
5742;SDS011;2896;53.500;10.020;2023-05-25T08:36:53;21.93;;;6.57;;
5742;SDS011;2896;53.500;10.020;2023-05-25T08:39:20;23.20;;;7.30;;
5742;SDS011;2896;53.500;10.020;2023-05-25T08:41:47;23.83;;;5.87;;
5742;SDS011;2896;53.500;10.020;2023-05-25T08:44:15;19.83;;;5.53;;
5742;SDS011;2896;53.500;10.020;2023-05-25T08:46:43;20.07;;;5.80;;
5742;SDS011;2896;53.500;10.020;2023-05-25T08:49:13;22.00;;;5.80;;
5742;SDS011;2896;53.500;10.020;2023-05-25T08:51:41;21.17;;;6.40;;
5742;SDS011;2896;53.500;10.020;2023-05-25T08:54:12;21.73;;;5.20;;
5742;SDS011;2896;53.500;10.020;2023-05-25T08:56:40;16.43;;;6.10;;
5742;SDS011;2896;53.500;10.020;2023-05-25T08:59:16;23.10;;;5.20;;
5742;SDS011;2896;53.500;10.020;2023-05-25T09:01:52;21.40;;;5.60;;
5742;SDS011;2896;53.500;10.020;2023-05-25T09:04:24;17.83;;;5.80;;
5742;SDS011;2896;53.500;10.020;2023-05-25T09:06:52;12.77;;;4.50;;
5742;SDS011;2896;53.500;10.020;2023-05-25T09:09:19;24.07;;;6.10;;
5742;SDS011;2896;53.500;10.020;2023-05-25T09:11:46;19.20;;;5.90;;
5742;SDS011;2896;53.500;10.020;2023-05-25T09:14:13;20.00;;;5.07;;
5742;SDS011;2896;53.500;10.020;2023-05-25T09:16:40;19.17;;;5.30;;
5742;SDS011;2896;53.500;10.020;2023-05-25T09:19:07;18.83;;;4.83;;
5742;SDS011;2896;53.500;10.020;2023-05-25T09:21:34;22.93;;;5.97;;
5742;SDS011;2896;53.500;10.020;2023-05-25T09:24:01;27.53;;;5.80;;
5742;SDS011;2896;53.500;10.020;2023-05-25T09:26:28;30.33;;;7.50;;
5742;SDS011;2896;53.500;10.020;2023-05-25T09:28:55;28.50;;;7.73;;
5742;SDS011;2896;53.500;10.020;2023-05-25T09:31:22;29.60;;;6.73;;
5742;SDS011;2896;53.500;10.020;2023-05-25T09:33:50;19.57;;;6.33;;
5742;SDS011;2896;53.500;10.020;2023-05-25T09:36:20;17.03;;;5.77;;
5742;SDS011;2896;53.500;10.020;2023-05-25T09:38:47;30.33;;;6.80;;
5742;SDS011;2896;53.500;10.020;2023-05-25T09:41:14;22.37;;;6.50;;
5742;SDS011;2896;53.500;10.020;2023-05-25T09:43:41;27.03;;;6.00;;
5742;SDS011;2896;53.500;10.020;2023-05-25T09:46:08;21.47;;;5.53;;
5742;SDS011;2896;53.500;10.020;2023-05-25T09:48:34;26.23;;;5.83;;
5742;SDS011;2896;53.500;10.020;2023-05-25T09:51:02;25.10;;;6.33;;
5742;SDS011;2896;53.500;10.020;2023-05-25T09:53:30;14.57;;;5.00;;
5742;SDS011;2896;53.500;10.020;2023-05-25T09:55:57;23.13;;;5.67;;
5742;SDS011;2896;53.500;10.020;2023-05-25T09:58:25;36.03;;;7.30;;
5742;SDS011;2896;53.500;10.020;2023-05-25T10:00:52;20.20;;;5.03;;
5742;SDS011;2896;53.500;10.020;2023-05-25T10:03:19;23.83;;;6.00;;
5742;SDS011;2896;53.500;10.020;2023-05-25T10:05:46;25.00;;;6.50;;
5742;SDS011;2896;53.500;10.020;2023-05-25T10:08:13;20.40;;;5.37;;
5742;SDS011;2896;53.500;10.020;2023-05-25T10:10:42;19.67;;;5.90;;
5742;SDS011;2896;53.500;10.020;2023-05-25T10:13:09;20.80;;;5.77;;
5742;SDS011;2896;53.500;10.020;2023-05-25T10:15:37;22.17;;;7.27;;
5742;SDS011;2896;53.500;10.020;2023-05-25T10:18:05;22.00;;;5.53;;
5742;SDS011;2896;53.500;10.020;2023-05-25T10:20:34;12.67;;;4.37;;
5742;SDS011;2896;53.500;10.020;2023-05-25T10:23:03;26.20;;;6.20;;
5742;SDS011;2896;53.500;10.020;2023-05-25T10:25:36;20.23;;;6.00;;
5742;SDS011;2896;53.500;10.020;2023-05-25T10:28:09;17.30;;;6.30;;
5742;SDS011;2896;53.500;10.020;2023-05-25T10:30:40;23.93;;;6.40;;
5742;SDS011;2896;53.500;10.020;2023-05-25T10:33:09;14.13;;;5.17;;
5742;SDS011;2896;53.500;10.020;2023-05-25T10:35:36;20.83;;;5.67;;
5742;SDS011;2896;53.500;10.020;2023-05-25T10:38:04;22.17;;;5.87;;
5742;SDS011;2896;53.500;10.020;2023-05-25T10:40:31;20.67;;;5.60;;
5742;SDS011;2896;53.500;10.020;2023-05-25T10:42:59;21.67;;;6.90;;
5742;SDS011;2896;53.500;10.020;2023-05-25T10:45:28;21.83;;;6.23;;
5742;SDS011;2896;53.500;10.020;2023-05-25T10:47:55;27.67;;;6.60;;
5742;SDS011;2896;53.500;10.020;2023-05-25T10:50:22;21.47;;;6.17;;
5742;SDS011;2896;53.500;10.020;2023-05-25T10:52:57;21.27;;;6.80;;
5742;SDS011;2896;53.500;10.020;2023-05-25T10:55:25;20.13;;;5.53;;
5742;SDS011;2896;53.500;10.020;2023-05-25T10:58:08;19.93;;;6.53;;
5742;SDS011;2896;53.500;10.020;2023-05-25T11:00:37;33.53;;;7.40;;
5742;SDS011;2896;53.500;10.020;2023-05-25T11:03:05;26.53;;;6.97;;
5742;SDS011;2896;53.500;10.020;2023-05-25T11:05:33;23.70;;;6.80;;
5742;SDS011;2896;53.500;10.020;2023-05-25T11:08:02;28.83;;;7.33;;
5742;SDS011;2896;53.500;10.020;2023-05-25T11:10:43;25.37;;;7.23;;
5742;SDS011;2896;53.500;10.020;2023-05-25T11:13:31;29.80;;;7.20;;
5742;SDS011;2896;53.500;10.020;2023-05-25T11:16:19;24.30;;;6.70;;
5742;SDS011;2896;53.500;10.020;2023-05-25T11:18:49;24.43;;;7.30;;
5742;SDS011;2896;53.500;10.020;2023-05-25T11:21:21;25.80;;;7.10;;
5742;SDS011;2896;53.500;10.020;2023-05-25T11:24:10;29.60;;;7.90;;
5742;SDS011;2896;53.500;10.020;2023-05-25T11:26:57;33.00;;;8.20;;
5742;SDS011;2896;53.500;10.020;2023-05-25T11:29:26;43.30;;;8.07;;
5742;SDS011;2896;53.500;10.020;2023-05-25T11:31:58;34.03;;;6.80;;
5742;SDS011;2896;53.500;10.020;2023-05-25T11:34:25;24.10;;;7.13;;
5742;SDS011;2896;53.500;10.020;2023-05-25T11:36:53;23.23;;;6.50;;
5742;SDS011;2896;53.500;10.020;2023-05-25T11:39:21;22.40;;;7.13;;
5742;SDS011;2896;53.500;10.020;2023-05-25T11:41:49;28.07;;;7.00;;
5742;SDS011;2896;53.500;10.020;2023-05-25T11:44:26;41.70;;;9.10;;
5742;SDS011;2896;53.500;10.020;2023-05-25T11:46:54;24.50;;;7.40;;
5742;SDS011;2896;53.500;10.020;2023-05-25T11:49:23;21.27;;;7.47;;
5742;SDS011;2896;53.500;10.020;2023-05-25T11:51:50;37.20;;;7.57;;
5742;SDS011;2896;53.500;10.020;2023-05-25T11:54:21;35.73;;;8.13;;
5742;SDS011;2896;53.500;10.020;2023-05-25T11:56:48;30.90;;;8.17;;
5742;SDS011;2896;53.500;10.020;2023-05-25T11:59:15;23.77;;;7.27;;
5742;SDS011;2896;53.500;10.020;2023-05-25T12:01:42;31.83;;;7.00;;
5742;SDS011;2896;53.500;10.020;2023-05-25T12:04:09;27.20;;;7.10;;
5742;SDS011;2896;53.500;10.020;2023-05-25T12:06:38;30.10;;;6.53;;
5742;SDS011;2896;53.500;10.020;2023-05-25T12:09:09;25.67;;;6.73;;
5742;SDS011;2896;53.500;10.020;2023-05-25T12:11:37;25.57;;;6.80;;
5742;SDS011;2896;53.500;10.020;2023-05-25T12:14:04;27.07;;;7.60;;
5742;SDS011;2896;53.500;10.020;2023-05-25T12:16:32;26.20;;;7.30;;
5742;SDS011;2896;53.500;10.020;2023-05-25T12:19:01;25.20;;;7.27;;
5742;SDS011;2896;53.500;10.020;2023-05-25T12:21:28;27.63;;;7.40;;
5742;SDS011;2896;53.500;10.020;2023-05-25T12:23:56;22.33;;;6.90;;
5742;SDS011;2896;53.500;10.020;2023-05-25T12:26:23;20.80;;;7.17;;
5742;SDS011;2896;53.500;10.020;2023-05-25T12:28:56;26.90;;;8.00;;
5742;SDS011;2896;53.500;10.020;2023-05-25T12:31:24;29.90;;;7.10;;
5742;SDS011;2896;53.500;10.020;2023-05-25T12:34:02;39.20;;;7.43;;
5742;SDS011;2896;53.500;10.020;2023-05-25T12:36:36;30.23;;;7.87;;
5742;SDS011;2896;53.500;10.020;2023-05-25T12:39:08;20.90;;;7.07;;
5742;SDS011;2896;53.500;10.020;2023-05-25T12:41:46;22.17;;;6.73;;
5742;SDS011;2896;53.500;10.020;2023-05-25T12:44:17;25.67;;;8.53;;
5742;SDS011;2896;53.500;10.020;2023-05-25T12:46:45;24.20;;;6.70;;
5742;SDS011;2896;53.500;10.020;2023-05-25T12:49:25;27.57;;;7.93;;
5742;SDS011;2896;53.500;10.020;2023-05-25T12:51:53;33.00;;;7.87;;
5742;SDS011;2896;53.500;10.020;2023-05-25T12:54:34;24.20;;;7.33;;
5742;SDS011;2896;53.500;10.020;2023-05-25T12:57:08;36.43;;;7.93;;
5742;SDS011;2896;53.500;10.020;2023-05-25T12:59:35;30.73;;;6.90;;
5742;SDS011;2896;53.500;10.020;2023-05-25T13:02:03;31.83;;;8.00;;
5742;SDS011;2896;53.500;10.020;2023-05-25T13:04:30;19.13;;;6.07;;
5742;SDS011;2896;53.500;10.020;2023-05-25T13:06:57;20.20;;;5.67;;
5742;SDS011;2896;53.500;10.020;2023-05-25T13:09:24;28.70;;;8.20;;
5742;SDS011;2896;53.500;10.020;2023-05-25T13:11:53;28.43;;;7.50;;
5742;SDS011;2896;53.500;10.020;2023-05-25T13:14:20;29.53;;;8.13;;
5742;SDS011;2896;53.500;10.020;2023-05-25T13:16:47;24.43;;;6.20;;
5742;SDS011;2896;53.500;10.020;2023-05-25T13:19:14;19.07;;;6.43;;
5742;SDS011;2896;53.500;10.020;2023-05-25T13:21:41;25.90;;;6.70;;
5742;SDS011;2896;53.500;10.020;2023-05-25T13:24:08;40.60;;;7.97;;
5742;SDS011;2896;53.500;10.020;2023-05-25T13:26:35;32.77;;;7.60;;
5742;SDS011;2896;53.500;10.020;2023-05-25T13:29:03;33.83;;;8.23;;
5742;SDS011;2896;53.500;10.020;2023-05-25T13:31:29;23.47;;;7.33;;
5742;SDS011;2896;53.500;10.020;2023-05-25T13:33:56;22.77;;;7.47;;
5742;SDS011;2896;53.500;10.020;2023-05-25T13:36:23;25.93;;;7.47;;
5742;SDS011;2896;53.500;10.020;2023-05-25T13:38:50;20.67;;;6.40;;
5742;SDS011;2896;53.500;10.020;2023-05-25T13:41:17;36.07;;;7.77;;
5742;SDS011;2896;53.500;10.020;2023-05-25T13:43:43;23.43;;;7.57;;
5742;SDS011;2896;53.500;10.020;2023-05-25T13:46:11;28.70;;;6.90;;
5742;SDS011;2896;53.500;10.020;2023-05-25T13:48:38;28.83;;;8.50;;
5742;SDS011;2896;53.500;10.020;2023-05-25T13:51:11;24.33;;;6.50;;
5742;SDS011;2896;53.500;10.020;2023-05-25T13:53:38;16.73;;;5.90;;
5742;SDS011;2896;53.500;10.020;2023-05-25T13:56:04;31.87;;;8.50;;
5742;SDS011;2896;53.500;10.020;2023-05-25T13:58:31;27.70;;;7.40;;
5742;SDS011;2896;53.500;10.020;2023-05-25T14:00:58;22.90;;;6.70;;
5742;SDS011;2896;53.500;10.020;2023-05-25T14:03:26;23.13;;;7.93;;
5742;SDS011;2896;53.500;10.020;2023-05-25T14:05:52;23.30;;;7.23;;
5742;SDS011;2896;53.500;10.020;2023-05-25T14:08:19;29.67;;;7.87;;
5742;SDS011;2896;53.500;10.020;2023-05-25T14:10:45;25.33;;;8.07;;
5742;SDS011;2896;53.500;10.020;2023-05-25T14:13:12;23.53;;;7.90;;
5742;SDS011;2896;53.500;10.020;2023-05-25T14:15:39;23.17;;;7.70;;
5742;SDS011;2896;53.500;10.020;2023-05-25T14:18:05;23.00;;;6.70;;
5742;SDS011;2896;53.500;10.020;2023-05-25T14:20:33;26.80;;;7.83;;
5742;SDS011;2896;53.500;10.020;2023-05-25T14:23:01;23.33;;;7.50;;
5742;SDS011;2896;53.500;10.020;2023-05-25T14:25:28;34.27;;;8.00;;
5742;SDS011;2896;53.500;10.020;2023-05-25T14:27:54;23.40;;;6.80;;
5742;SDS011;2896;53.500;10.020;2023-05-25T14:30:21;27.47;;;7.83;;
5742;SDS011;2896;53.500;10.020;2023-05-25T14:32:48;25.10;;;7.43;;
5742;SDS011;2896;53.500;10.020;2023-05-25T14:35:15;24.43;;;7.33;;
5742;SDS011;2896;53.500;10.020;2023-05-25T14:37:43;28.40;;;8.20;;
5742;SDS011;2896;53.500;10.020;2023-05-25T14:40:10;39.83;;;8.40;;
5742;SDS011;2896;53.500;10.020;2023-05-25T14:42:37;22.67;;;6.80;;
5742;SDS011;2896;53.500;10.020;2023-05-25T14:45:04;25.47;;;8.10;;
5742;SDS011;2896;53.500;10.020;2023-05-25T14:47:32;30.37;;;7.30;;